| time (UTC) | temp C | wind direction | speed KPH | gust KPH | rain 1hr cm | rain 24hr cm | rain mn cm | humidity % | barometer mb |
| 20260906050454 | 11 | 330 | 33.8 | 40.2 | 0.00 | 0.00 | 0.00 | 86 | 1004.6 |
| 20260906044123 | 11 | 333 | 32.2 | 40.2 | 0.00 | 0.00 | 0.00 | 83 | 1004.4 |
| 20260906042123 | 11 | 331 | 32.2 | 38.6 | 0.00 | 0.00 | 0.00 | 88 | 1004.2 |
| 20260906040452 | 11 | 327 | 33.8 | 45.1 | 0.00 | 0.00 | 0.00 | 90 | 1003.8 |
| 20260906032453 | 11 | 320 | 32.2 | 37.0 | 0.00 | 0.00 | 0.00 | 90 | 1003.3 |
| 20260906030453 | 11 | 323 | 30.6 | 38.6 | 0.00 | 0.00 | 0.00 | 90 | 1003.0 |
| 20260906024453 | 11 | 327 | 32.2 | 40.2 | 0.00 | 0.00 | 0.00 | 89 | 1002.8 |
| 20260906022453 | 11 | 331 | 30.6 | 35.4 | 0.00 | 0.00 | 0.00 | 90 | 1002.6 |
| 20260906020452 | 11 | 334 | 30.6 | 37.0 | 0.00 | 0.00 | 0.00 | 91 | 1002.4 |
| 20260906014454 | 11 | 330 | 30.6 | 38.6 | 0.00 | 0.00 | 0.00 | 91 | 1002.1 |
| 20260906012453 | 11 | 324 | 29.0 | 35.4 | 0.00 | 0.00 | 0.00 | 91 | 1002.0 |
| 20260906010453 | 11 | 330 | 32.2 | 38.6 | 0.00 | 0.00 | 0.00 | 89 | 1001.8 |
| 20260906002453 | 11 | 330 | 30.6 | 37.0 | 0.00 | 0.00 | 0.00 | 89 | 1001.4 |
| 20260906000452 | 11 | 330 | 30.6 | 38.6 | 0.00 | 0.00 | 0.00 | 89 | 1001.2 |
| 20260905234452 | 11 | 330 | 32.2 | 37.0 | 0.00 | 0.00 | 0.00 | 90 | 1001.0 |
| 20260905232452 | 12 | 334 | 29.0 | 33.8 | 0.00 | 0.00 | 0.00 | 90 | 1000.9 |
| 20260905230452 | 12 | 332 | 27.4 | 32.2 | 0.00 | 0.00 | 0.00 | 89 | 1000.7 |
| 20260905224122 | 12 | 333 | 30.6 | 33.8 | 0.00 | 0.00 | 0.00 | 88 | 1000.5 |
| 20260905222451 | 12 | 333 | 30.6 | 33.8 | 0.00 | 0.00 | 0.00 | 89 | 1000.3 |
| 20260905220452 | 12 | 333 | 30.6 | 33.8 | 0.00 | 0.00 | 0.00 | 90 | 1000.2 |
| 20260905214452 | 13 | 332 | 27.4 | 30.6 | 0.00 | 0.00 | 0.00 | 88 | 1000.0 |
| 20260905212453 | 13 | 334 | 27.4 | 32.2 | 0.00 | 0.00 | 0.00 | 85 | 999.9 |
| 20260905210452 | 13 | 334 | 29.0 | 33.8 | 0.00 | 0.00 | 0.00 | 84 | 999.7 |
| 20260905202452 | 13 | 334 | 27.4 | 30.6 | 0.00 | 0.00 | 0.00 | 83 | 999.4 |
| 20260905200453 | 14 | 327 | 25.7 | 30.6 | 0.00 | 0.00 | 0.00 | 81 | 999.2 |
| 20260905194452 | 15 | 319 | 27.4 | 32.2 | 0.00 | 0.00 | 0.00 | 78 | 999.0 |
| 20260905192452 | 15 | 316 | 25.7 | 32.2 | 0.00 | 0.00 | 0.00 | 76 | 998.8 |
| 20260905190451 | 15 | 323 | 27.4 | 35.4 | 0.00 | 0.00 | 0.00 | 75 | 998.7 |
| 20260905184452 | 15 | 314 | 24.1 | 30.6 | 0.00 | 0.00 | 0.00 | 71 | 998.6 |
| 20260905182451 | 15 | 306 | 20.9 | 27.4 | 0.00 | 0.00 | 0.00 | 73 | 998.5 |
| 20260905180449 | 15 | 304 | 16.1 | 19.3 | 0.00 | 0.00 | 0.00 | 74 | 998.4 |
| 20260905174120 | 16 | 310 | 17.7 | 19.3 | 0.00 | 0.00 | 0.00 | 72 | 998.3 |
| 20260905172450 | 16 | 298 | 12.9 | 16.1 | 0.00 | 0.00 | 0.00 | 69 | 998.1 |
| 20260905170450 | 16 | 298 | 14.5 | 19.3 | 0.00 | 0.00 | 0.00 | 67 | 997.9 |
| 20260905162121 | 16 | 320 | 9.7 | 12.9 | 0.00 | 0.00 | 0.00 | 68 | 997.5 |
| 20260905160451 | 16 | 320 | 9.7 | 12.9 | 0.00 | 0.00 | 0.00 | 72 | 997.4 |
| 20260905154121 | 16 | 282 | 9.7 | 14.5 | 0.00 | 0.00 | 0.00 | 70 | 997.1 |
| 20260905152452 | 16 | 251 | 11.3 | 14.5 | 0.00 | 0.00 | 0.00 | 69 | 997.1 |
| 20260905150450 | 16 | 249 | 16.1 | 22.5 | 0.00 | 0.00 | 0.00 | 74 | 997.0 |
| 20260905144451 | 16 | 226 | 17.7 | 20.9 | 0.00 | 0.00 | 0.00 | 71 | 996.8 |
| 20260905134450 | 17 | 235 | 9.7 | 11.3 | 0.00 | 0.00 | 0.00 | 61 | 996.4 |
| 20260905132120 | 16 | 206 | 16.1 | 19.3 | 0.00 | 0.00 | 0.00 | 72 | 996.3 |
| 20260905130454 | 16 | 189 | 12.9 | 16.1 | 0.00 | 0.00 | 0.00 | 73 | 996.2 |
| 20260905122120 | 15 | 48 | 3.2 | 6.4 | 0.00 | 0.00 | 0.00 | 79 | 996.3 |
| 20260905120450 | 15 | 339 | 16.1 | 29.0 | 0.00 | 0.00 | 0.00 | 79 | 996.2 |
| 20260905112452 | 16 | 224 | 16.1 | 19.3 | 0.00 | 0.00 | 0.00 | 69 | 995.8 |
| 20260905110449 | 16 | 214 | 17.7 | 19.3 | 0.00 | 0.00 | 0.00 | 71 | 995.5 |
| 20260905104450 | 16 | 214 | 16.1 | 17.7 | 0.00 | 0.00 | 0.00 | 72 | 995.4 |
| 20260905102450 | 16 | 221 | 14.5 | 14.5 | 0.00 | 0.00 | 0.00 | 76 | 995.4 |
| 20260905100449 | 16 | 237 | 11.3 | 12.9 | 0.00 | 0.00 | 0.00 | 74 | 995.2 |
| 20260905094448 | 16 | 244 | 12.9 | 14.5 | 0.00 | 0.00 | 0.00 | 74 | 995.1 |
| 20260905092449 | 16 | 249 | 12.9 | 14.5 | 0.00 | 0.00 | 0.00 | 73 | 995.0 |
| 20260905090450 | 15 | 242 | 11.3 | 12.9 | 0.00 | 0.00 | 0.00 | 78 | 994.9 |
| 20260905084450 | 15 | 257 | 11.3 | 12.9 | 0.00 | 0.00 | 0.00 | 76 | 994.8 |
| 20260905082452 | 15 | 262 | 9.7 | 11.3 | 0.00 | 0.00 | 0.00 | 79 | 994.7 |
| 20260905080448 | 14 | 266 | 8.0 | 9.7 | 0.00 | 0.00 | 0.00 | 81 | 994.6 |
| 20260905074119 | 14 | 264 | 8.0 | 9.7 | 0.00 | 0.00 | 0.00 | 85 | 994.6 |
| 20260905072448 | 13 | 286 | 6.4 | 8.0 | 0.00 | 0.00 | 0.00 | 89 | 994.5 |
| 20260905070452 | 13 | 296 | 4.8 | 6.4 | 0.00 | 0.00 | 0.00 | 89 | 994.3 |
| 20260905064448 | 13 | 322 | 4.8 | 6.4 | 0.00 | 0.00 | 0.00 | 91 | 994.2 |
| 20260905062448 | 13 | 354 | 6.4 | 9.7 | 0.00 | 0.00 | 0.00 | 92 | 994.0 |
| 20260905060448 | 13 | 356 | 8.0 | 9.7 | 0.00 | 0.00 | 0.00 | 92 | 994.0 |
| 20260905054449 | 12 | 14 | 6.4 | 9.7 | 0.00 | 0.00 | 0.00 | 94 | 993.9 |
| 20260905052448 | 12 | 18 | 8.0 | 9.7 | 0.00 | 0.00 | 0.00 | 93 | 993.9 |